createdAt,value
2022-11-20T00:04:46.953Z,26.17
2022-11-20T00:10:12.025Z,26.13
2022-11-20T00:15:36.082Z,30.05
2022-11-20T00:21:03.376Z,27.25
2022-11-20T00:26:29.960Z,23.85
2022-11-20T00:31:53.754Z,23.67
2022-11-20T00:37:17.393Z,32.22
2022-11-20T00:42:42.438Z,23.05
2022-11-20T00:48:06.233Z,25.00
2022-11-20T00:53:30.059Z,27.45
2022-11-20T00:58:55.235Z,22.70
2022-11-20T01:04:18.937Z,13.88
2022-11-20T01:09:42.616Z,22.52
2022-11-20T01:15:09.062Z,21.08
2022-11-20T01:20:35.847Z,19.55
2022-11-20T01:26:01.485Z,18.15
2022-11-20T01:31:29.338Z,21.10
2022-11-20T01:36:53.881Z,19.65
2022-11-20T01:42:49.534Z,18.67
2022-11-20T01:48:15.250Z,18.30
2022-11-20T01:53:39.564Z,18.52
2022-11-20T01:59:06.316Z,19.02
2022-11-20T02:04:31.363Z,20.05
2022-11-20T02:09:58.716Z,19.73
2022-11-20T02:15:26.302Z,23.75
2022-11-20T02:21:01.031Z,18.30
2022-11-20T02:26:27.134Z,21.10
2022-11-20T02:31:51.029Z,19.55
2022-11-20T02:37:14.907Z,19.42
2022-11-20T02:42:40.173Z,18.55
2022-11-20T02:48:03.874Z,18.40
2022-11-20T02:53:27.577Z,19.63
2022-11-20T02:58:52.569Z,20.30
2022-11-20T03:04:16.362Z,19.42
2022-11-20T03:09:40.026Z,24.60
2022-11-20T03:15:05.943Z,29.23
2022-11-20T03:20:29.564Z,22.40
2022-11-20T03:25:53.325Z,22.67
2022-11-20T03:31:20.019Z,24.00
2022-11-20T03:36:44.778Z,28.95
2022-11-20T03:42:28.853Z,26.38
2022-11-20T03:47:54.008Z,26.58
2022-11-20T03:53:18.461Z,23.35
2022-11-20T03:58:43.143Z,27.73
2022-11-20T04:04:08.236Z,28.85
2022-11-20T04:09:31.892Z,30.60
2022-11-20T04:14:55.564Z,22.98
2022-11-20T04:20:20.685Z,29.67
2022-11-20T04:25:44.379Z,22.02
2022-11-20T04:31:09.651Z,29.05
2022-11-20T04:36:35.711Z,26.42
2022-11-20T04:42:13.258Z,24.88
2022-11-20T04:47:36.896Z,23.15
2022-11-20T04:53:01.922Z,23.38
2022-11-20T04:58:25.547Z,24.50
2022-11-20T05:03:49.417Z,29.83
2022-11-20T05:09:14.656Z,30.40
2022-11-20T05:14:38.301Z,27.27
2022-11-20T05:20:02.011Z,24.02
2022-11-20T05:25:27.434Z,27.60
2022-11-20T05:30:51.517Z,26.75
2022-11-20T05:36:16.615Z,23.83
2022-11-20T05:41:41.623Z,29.60
2022-11-20T05:47:05.281Z,25.95
2022-11-20T05:52:30.719Z,26.48
2022-11-20T05:57:56.505Z,22.40
2022-11-20T06:03:20.185Z,24.48
2022-11-20T06:08:44.024Z,28.15
2022-11-20T06:14:09.130Z,24.70
2022-11-20T06:19:32.842Z,25.27
2022-11-20T06:24:56.497Z,23.95
2022-11-20T06:30:21.488Z,24.58
2022-11-20T06:35:45.067Z,24.83
2022-11-20T06:41:12.167Z,23.55
2022-11-20T06:46:37.277Z,22.20
2022-11-20T06:52:01.424Z,23.70
2022-11-20T06:57:25.089Z,20.10
2022-11-20T07:02:50.984Z,21.05
2022-11-20T07:08:14.669Z,28.83
2022-11-20T07:13:38.369Z,26.40
2022-11-20T07:19:03.435Z,22.65
2022-11-20T07:24:27.171Z,22.33
2022-11-20T07:29:50.830Z,26.27
2022-11-20T07:35:15.995Z,26.55
2022-11-20T07:40:39.683Z,32.83
2022-11-20T07:46:04.891Z,27.05
2022-11-20T07:51:30.439Z,28.98
2022-11-20T07:56:54.117Z,23.65
2022-11-20T08:02:17.742Z,23.00
2022-11-20T08:07:45.059Z,120.32
2022-11-20T08:13:25.907Z,25.98
2022-11-20T08:18:49.521Z,31.00
2022-11-20T08:24:14.990Z,26.95
2022-11-20T08:29:39.287Z,27.20
2022-11-20T08:35:03.258Z,26.88
2022-11-20T08:40:28.398Z,24.65
2022-11-20T08:45:52.038Z,18.73
2022-11-20T08:51:16.003Z,19.48
2022-11-20T08:56:40.995Z,21.73
2022-11-20T09:02:04.665Z,27.17
2022-11-20T09:07:28.448Z,26.13
2022-11-20T09:12:53.679Z,25.73
2022-11-20T09:18:17.345Z,25.92
2022-11-20T09:23:41.510Z,26.60
2022-11-20T09:29:06.898Z,23.52
2022-11-20T09:34:30.567Z,22.98
2022-11-20T09:39:54.224Z,22.45
2022-11-20T09:45:39.342Z,27.02
2022-11-20T09:51:12.878Z,22.95
2022-11-20T09:56:41.494Z,32.33
2022-11-20T10:02:21.991Z,29.85
2022-11-20T10:07:50.537Z,27.38
2022-11-20T10:13:25.807Z,30.83
2022-11-20T10:19:04.922Z,24.30
2022-11-20T10:24:54.553Z,26.50
2022-11-20T10:30:21.072Z,21.60
2022-11-20T10:35:49.141Z,25.13
2022-11-20T10:41:37.223Z,26.25
2022-11-20T10:47:01.576Z,24.73
2022-11-20T10:52:37.691Z,25.52
2022-11-20T10:58:09.947Z,23.90
2022-11-20T11:03:33.875Z,25.92
2022-11-20T11:09:04.275Z,24.15
2022-11-20T11:14:28.017Z,29.30
2022-11-20T11:20:08.401Z,33.28
2022-11-20T11:25:35.697Z,31.67
2022-11-20T11:30:59.572Z,37.17
2022-11-20T11:36:26.092Z,27.45
2022-11-20T11:41:52.195Z,34.72
2022-11-20T11:47:26.077Z,31.70
2022-11-20T11:52:58.577Z,32.40
2022-11-20T11:58:36.578Z,34.35
2022-11-20T12:04:06.466Z,35.05
2022-11-20T12:09:37.637Z,32.72
2022-11-20T12:15:03.741Z,34.33
2022-11-20T12:20:31.734Z,31.95
2022-11-20T12:25:59.023Z,36.15
2022-11-20T12:31:46.986Z,28.02
2022-11-20T12:37:27.021Z,32.05
2022-11-20T12:43:17.574Z,31.00
2022-11-20T12:48:58.446Z,31.92
2022-11-20T12:54:43.629Z,27.00
2022-11-20T13:00:16.038Z,32.67
2022-11-20T13:05:48.973Z,33.35
2022-11-20T13:11:19.179Z,33.90
2022-11-20T13:16:50.715Z,30.25
2022-11-20T13:22:26.681Z,36.95
2022-11-20T13:27:51.314Z,32.95
2022-11-20T13:33:27.392Z,37.03
2022-11-20T13:38:54.208Z,33.78
2022-11-20T13:44:32.468Z,29.63
2022-11-20T13:49:57.738Z,31.77
2022-11-20T13:55:40.073Z,27.92
2022-11-20T14:01:11.589Z,32.30
2022-11-20T14:06:40.753Z,31.42
2022-11-20T14:12:16.374Z,28.90
2022-11-20T14:17:40.291Z,34.90
2022-11-20T14:23:05.950Z,35.88
2022-11-20T14:28:32.898Z,35.08
2022-11-20T14:33:57.315Z,35.72
2022-11-20T14:39:23.588Z,40.00
2022-11-20T14:44:50.414Z,37.67
2022-11-20T14:50:18.535Z,41.47
2022-11-20T14:55:43.117Z,42.72
2022-11-20T15:01:09.667Z,41.78
2022-11-20T15:06:33.612Z,46.38
2022-11-20T15:11:59.055Z,34.85
2022-11-20T15:17:24.536Z,45.85
2022-11-20T15:22:48.141Z,39.42
2022-11-20T15:28:19.848Z,40.47
2022-11-20T15:33:44.965Z,40.03
2022-11-20T15:39:09.286Z,42.58
2022-11-20T15:44:32.913Z,40.83
2022-11-20T15:49:58.040Z,40.97
2022-11-20T15:55:21.828Z,38.95
2022-11-20T16:00:46.485Z,45.33
2022-11-20T16:06:11.998Z,45.00
2022-11-20T16:11:37.613Z,46.33
2022-11-20T16:17:02.598Z,44.15
2022-11-20T16:22:27.642Z,39.65
2022-11-20T16:27:51.365Z,49.70
2022-11-20T16:33:16.504Z,51.08
2022-11-20T16:38:42.390Z,48.28
2022-11-20T16:44:10.200Z,51.83
2022-11-20T16:49:33.985Z,46.33
2022-11-20T16:54:59.172Z,44.22
2022-11-20T17:00:22.955Z,42.67
2022-11-20T17:05:46.828Z,44.10
2022-11-20T17:11:13.687Z,42.38
2022-11-20T17:16:39.360Z,52.15
2022-11-20T17:22:03.096Z,51.88
2022-11-20T17:27:32.139Z,63.80
2022-11-20T17:32:59.762Z,56.85
2022-11-20T17:38:23.696Z,53.17
2022-11-20T17:43:49.198Z,59.55
2022-11-20T17:49:12.979Z,67.43
2022-11-20T17:54:36.768Z,60.28
2022-11-20T18:00:01.806Z,55.08
2022-11-20T18:05:25.477Z,56.28
2022-11-20T18:10:49.298Z,62.92
2022-11-20T18:16:14.596Z,67.68
2022-11-20T18:21:38.753Z,59.58
2022-11-20T18:27:03.101Z,72.25
2022-11-20T18:32:28.472Z,68.95
2022-11-20T18:37:52.208Z,55.35
2022-11-20T18:43:33.245Z,48.80
2022-11-20T18:48:58.426Z,59.90
2022-11-20T18:54:22.397Z,50.28
2022-11-20T18:59:46.899Z,67.32
2022-11-20T19:05:12.563Z,74.45
2022-11-20T19:10:37.643Z,58.78
2022-11-20T19:16:03.786Z,53.20
2022-11-20T19:21:29.219Z,54.15
2022-11-20T19:26:54.688Z,60.03
2022-11-20T19:32:18.484Z,69.47
2022-11-20T19:37:43.593Z,82.32
2022-11-20T19:43:07.318Z,70.97
2022-11-20T19:48:31.809Z,77.32
2022-11-20T19:53:58.924Z,70.97
2022-11-20T19:59:23.055Z,54.13
2022-11-20T20:04:47.428Z,52.22
2022-11-20T20:10:12.681Z,58.58
2022-11-20T20:15:41.368Z,46.30
2022-11-20T20:21:06.703Z,37.10
2022-11-20T20:26:32.920Z,36.22
2022-11-20T20:31:56.567Z,41.08
2022-11-20T20:37:20.281Z,39.45
2022-11-20T20:42:45.458Z,35.22
2022-11-20T20:48:09.313Z,35.17
2022-11-20T20:53:32.972Z,35.10
2022-11-20T20:58:58.059Z,32.58
2022-11-20T21:04:22.067Z,29.83
2022-11-20T21:09:45.772Z,42.25
2022-11-20T21:15:11.873Z,43.58
2022-11-20T21:20:58.514Z,56.13
2022-11-20T21:26:23.080Z,48.95
2022-11-20T21:31:48.555Z,42.53
2022-11-20T21:37:12.225Z,37.25
2022-11-20T21:42:35.964Z,35.20
2022-11-20T21:48:00.996Z,50.25
2022-11-20T21:53:25.093Z,44.95
2022-11-20T21:58:49.268Z,47.67
2022-11-20T22:04:16.196Z,47.95
2022-11-20T22:09:39.889Z,50.03
2022-11-20T22:15:03.537Z,52.38
2022-11-20T22:20:28.565Z,37.22
2022-11-20T22:25:52.369Z,38.55
2022-11-20T22:31:16.554Z,29.75
2022-11-20T22:36:44.780Z,26.73
2022-11-20T22:42:08.681Z,27.80
2022-11-20T22:47:32.324Z,30.50
2022-11-20T22:52:57.329Z,24.17
2022-11-20T22:58:21.033Z,26.13
2022-11-20T23:03:46.409Z,26.45
2022-11-20T23:09:12.925Z,23.88
2022-11-20T23:14:36.578Z,26.73
2022-11-20T23:20:02.489Z,24.88
2022-11-20T23:25:27.585Z,28.23
2022-11-20T23:30:51.266Z,22.80
2022-11-20T23:36:15.369Z,20.17
2022-11-20T23:41:40.393Z,21.00
2022-11-20T23:47:04.063Z,28.52
2022-11-20T23:52:27.705Z,24.92
2022-11-20T23:57:52.772Z,25.70
